sensor_id;sensor_type;location;lat;lon;timestamp;P1;durP1;ratioP1;P2;durP2;ratioP2
28920;SDS011;16035;53.594;9.952;2022-08-21T00:01:05;7.75;;;4.28;;
28920;SDS011;16035;53.594;9.952;2022-08-21T00:03:10;6.57;;;3.90;;
28920;SDS011;16035;53.594;9.952;2022-08-21T00:05:12;7.43;;;4.55;;
28920;SDS011;16035;53.594;9.952;2022-08-21T00:07:13;8.87;;;4.53;;
28920;SDS011;16035;53.594;9.952;2022-08-21T00:09:14;7.22;;;4.18;;
28920;SDS011;16035;53.594;9.952;2022-08-21T00:11:14;8.17;;;4.13;;
28920;SDS011;16035;53.594;9.952;2022-08-21T00:13:15;7.80;;;4.40;;
28920;SDS011;16035;53.594;9.952;2022-08-21T00:15:18;9.40;;;4.35;;
28920;SDS011;16035;53.594;9.952;2022-08-21T00:17:22;8.30;;;4.13;;
28920;SDS011;16035;53.594;9.952;2022-08-21T00:19:22;6.93;;;4.00;;
28920;SDS011;16035;53.594;9.952;2022-08-21T00:21:24;9.57;;;5.13;;
28920;SDS011;16035;53.594;9.952;2022-08-21T00:23:25;7.40;;;4.43;;
28920;SDS011;16035;53.594;9.952;2022-08-21T00:25:25;8.77;;;4.00;;
28920;SDS011;16035;53.594;9.952;2022-08-21T00:27:26;8.20;;;4.50;;
28920;SDS011;16035;53.594;9.952;2022-08-21T00:29:26;8.83;;;4.17;;
28920;SDS011;16035;53.594;9.952;2022-08-21T00:31:27;11.90;;;4.97;;
28920;SDS011;16035;53.594;9.952;2022-08-21T00:33:27;11.53;;;6.57;;
28920;SDS011;16035;53.594;9.952;2022-08-21T00:35:29;11.57;;;5.37;;
28920;SDS011;16035;53.594;9.952;2022-08-21T00:37:32;9.65;;;4.53;;
28920;SDS011;16035;53.594;9.952;2022-08-21T00:39:32;7.43;;;4.33;;
28920;SDS011;16035;53.594;9.952;2022-08-21T00:41:33;7.33;;;4.00;;
28920;SDS011;16035;53.594;9.952;2022-08-21T00:43:36;7.38;;;3.90;;
28920;SDS011;16035;53.594;9.952;2022-08-21T00:45:38;7.95;;;3.90;;
28920;SDS011;16035;53.594;9.952;2022-08-21T00:47:38;7.13;;;4.40;;
28920;SDS011;16035;53.594;9.952;2022-08-21T00:49:39;6.37;;;4.03;;
28920;SDS011;16035;53.594;9.952;2022-08-21T00:51:48;7.43;;;4.28;;
28920;SDS011;16035;53.594;9.952;2022-08-21T00:53:53;7.25;;;3.90;;
28920;SDS011;16035;53.594;9.952;2022-08-21T00:55:57;8.68;;;4.10;;
28920;SDS011;16035;53.594;9.952;2022-08-21T00:58:00;7.20;;;4.03;;
28920;SDS011;16035;53.594;9.952;2022-08-21T01:00:03;5.90;;;3.63;;
28920;SDS011;16035;53.594;9.952;2022-08-21T01:02:06;9.65;;;4.43;;
28920;SDS011;16035;53.594;9.952;2022-08-21T01:04:08;6.70;;;3.72;;
28920;SDS011;16035;53.594;9.952;2022-08-21T01:06:08;6.30;;;3.57;;
28920;SDS011;16035;53.594;9.952;2022-08-21T01:08:09;6.73;;;3.63;;
28920;SDS011;16035;53.594;9.952;2022-08-21T01:10:10;6.45;;;4.05;;
28920;SDS011;16035;53.594;9.952;2022-08-21T01:12:13;9.00;;;4.28;;
28920;SDS011;16035;53.594;9.952;2022-08-21T01:14:14;6.05;;;3.78;;
28920;SDS011;16035;53.594;9.952;2022-08-21T01:16:16;6.77;;;3.87;;
28920;SDS011;16035;53.594;9.952;2022-08-21T01:18:18;7.55;;;4.28;;
28920;SDS011;16035;53.594;9.952;2022-08-21T01:20:20;6.07;;;3.58;;
28920;SDS011;16035;53.594;9.952;2022-08-21T01:22:21;7.23;;;3.60;;
28920;SDS011;16035;53.594;9.952;2022-08-21T01:24:21;7.33;;;4.63;;
28920;SDS011;16035;53.594;9.952;2022-08-21T01:26:24;7.70;;;4.45;;
28920;SDS011;16035;53.594;9.952;2022-08-21T01:28:26;7.47;;;4.00;;
28920;SDS011;16035;53.594;9.952;2022-08-21T01:30:30;9.50;;;4.30;;
28920;SDS011;16035;53.594;9.952;2022-08-21T01:32:34;7.97;;;4.28;;
28920;SDS011;16035;53.594;9.952;2022-08-21T01:34:36;8.77;;;4.10;;
28920;SDS011;16035;53.594;9.952;2022-08-21T01:36:38;9.80;;;4.20;;
28920;SDS011;16035;53.594;9.952;2022-08-21T01:38:39;7.20;;;3.93;;
28920;SDS011;16035;53.594;9.952;2022-08-21T01:40:39;9.83;;;4.67;;
28920;SDS011;16035;53.594;9.952;2022-08-21T01:42:40;5.90;;;4.00;;
28920;SDS011;16035;53.594;9.952;2022-08-21T01:44:40;6.93;;;4.20;;
28920;SDS011;16035;53.594;9.952;2022-08-21T01:46:41;6.27;;;3.70;;
28920;SDS011;16035;53.594;9.952;2022-08-21T01:48:42;6.43;;;3.77;;
28920;SDS011;16035;53.594;9.952;2022-08-21T01:50:42;6.45;;;3.85;;
28920;SDS011;16035;53.594;9.952;2022-08-21T01:52:43;6.40;;;3.80;;
28920;SDS011;16035;53.594;9.952;2022-08-21T01:54:44;6.27;;;3.90;;
28920;SDS011;16035;53.594;9.952;2022-08-21T01:56:45;4.07;;;3.10;;
28920;SDS011;16035;53.594;9.952;2022-08-21T01:58:48;3.97;;;3.08;;
28920;SDS011;16035;53.594;9.952;2022-08-21T02:00:48;5.90;;;3.67;;
28920;SDS011;16035;53.594;9.952;2022-08-21T02:02:49;6.57;;;3.80;;
28920;SDS011;16035;53.594;9.952;2022-08-21T02:04:50;7.65;;;3.88;;
28920;SDS011;16035;53.594;9.952;2022-08-21T02:06:50;7.43;;;3.83;;
28920;SDS011;16035;53.594;9.952;2022-08-21T02:08:51;6.72;;;3.45;;
28920;SDS011;16035;53.594;9.952;2022-08-21T02:10:52;4.97;;;3.17;;
28920;SDS011;16035;53.594;9.952;2022-08-21T02:12:53;6.27;;;3.57;;
28920;SDS011;16035;53.594;9.952;2022-08-21T02:14:55;6.07;;;3.67;;
28920;SDS011;16035;53.594;9.952;2022-08-21T02:16:55;7.43;;;3.43;;
28920;SDS011;16035;53.594;9.952;2022-08-21T02:18:55;5.93;;;3.23;;
28920;SDS011;16035;53.594;9.952;2022-08-21T02:20:56;4.53;;;3.13;;
28920;SDS011;16035;53.594;9.952;2022-08-21T02:22:56;5.20;;;3.10;;
28920;SDS011;16035;53.594;9.952;2022-08-21T02:24:56;7.53;;;3.27;;
28920;SDS011;16035;53.594;9.952;2022-08-21T02:26:57;4.83;;;3.43;;
28920;SDS011;16035;53.594;9.952;2022-08-21T02:28:57;5.37;;;3.20;;
28920;SDS011;16035;53.594;9.952;2022-08-21T02:30:58;4.70;;;2.92;;
28920;SDS011;16035;53.594;9.952;2022-08-21T02:32:59;7.53;;;3.28;;
28920;SDS011;16035;53.594;9.952;2022-08-21T02:35:00;3.72;;;2.92;;
28920;SDS011;16035;53.594;9.952;2022-08-21T02:37:01;6.17;;;2.77;;
28920;SDS011;16035;53.594;9.952;2022-08-21T02:39:01;6.23;;;3.23;;
28920;SDS011;16035;53.594;9.952;2022-08-21T02:41:02;7.72;;;3.28;;
28920;SDS011;16035;53.594;9.952;2022-08-21T02:43:03;5.70;;;2.77;;
28920;SDS011;16035;53.594;9.952;2022-08-21T02:45:05;6.90;;;2.97;;
28920;SDS011;16035;53.594;9.952;2022-08-21T02:47:07;9.20;;;2.95;;
28920;SDS011;16035;53.594;9.952;2022-08-21T02:49:07;9.00;;;3.40;;
28920;SDS011;16035;53.594;9.952;2022-08-21T02:51:09;7.57;;;3.53;;
28920;SDS011;16035;53.594;9.952;2022-08-21T02:53:16;7.32;;;2.97;;
28920;SDS011;16035;53.594;9.952;2022-08-21T02:55:16;4.68;;;3.00;;
28920;SDS011;16035;53.594;9.952;2022-08-21T02:57:17;4.53;;;2.97;;
28920;SDS011;16035;53.594;9.952;2022-08-21T02:59:17;4.57;;;3.07;;
28920;SDS011;16035;53.594;9.952;2022-08-21T03:01:18;6.37;;;3.70;;
28920;SDS011;16035;53.594;9.952;2022-08-21T03:03:19;6.05;;;3.38;;
28920;SDS011;16035;53.594;9.952;2022-08-21T03:05:21;5.45;;;3.30;;
28920;SDS011;16035;53.594;9.952;2022-08-21T03:07:21;7.55;;;3.00;;
28920;SDS011;16035;53.594;9.952;2022-08-21T03:09:23;9.95;;;2.63;;
28920;SDS011;16035;53.594;9.952;2022-08-21T03:11:24;4.38;;;2.75;;
28920;SDS011;16035;53.594;9.952;2022-08-21T03:13:26;5.43;;;3.15;;
28920;SDS011;16035;53.594;9.952;2022-08-21T03:15:27;6.25;;;3.20;;
28920;SDS011;16035;53.594;9.952;2022-08-21T03:17:28;5.10;;;2.70;;
28920;SDS011;16035;53.594;9.952;2022-08-21T03:19:28;5.07;;;2.70;;
28920;SDS011;16035;53.594;9.952;2022-08-21T03:21:28;4.37;;;2.47;;
28920;SDS011;16035;53.594;9.952;2022-08-21T03:23:29;5.13;;;3.13;;
28920;SDS011;16035;53.594;9.952;2022-08-21T03:25:30;5.57;;;3.00;;
28920;SDS011;16035;53.594;9.952;2022-08-21T03:31:34;5.67;;;3.10;;
28920;SDS011;16035;53.594;9.952;2022-08-21T03:33:34;3.13;;;2.57;;
28920;SDS011;16035;53.594;9.952;2022-08-21T03:35:34;7.10;;;2.83;;
28920;SDS011;16035;53.594;9.952;2022-08-21T03:37:35;7.07;;;3.93;;
28920;SDS011;16035;53.594;9.952;2022-08-21T03:39:36;6.15;;;3.00;;
28920;SDS011;16035;53.594;9.952;2022-08-21T03:41:36;5.80;;;2.67;;
28920;SDS011;16035;53.594;9.952;2022-08-21T03:43:36;4.70;;;2.67;;
28920;SDS011;16035;53.594;9.952;2022-08-21T03:47:39;4.65;;;2.92;;
28920;SDS011;16035;53.594;9.952;2022-08-21T03:49:49;5.90;;;3.00;;
28920;SDS011;16035;53.594;9.952;2022-08-21T03:51:50;5.20;;;3.10;;
28920;SDS011;16035;53.594;9.952;2022-08-21T03:53:51;7.20;;;3.27;;
28920;SDS011;16035;53.594;9.952;2022-08-21T03:55:52;5.47;;;3.15;;
28920;SDS011;16035;53.594;9.952;2022-08-21T03:57:52;5.90;;;3.15;;
28920;SDS011;16035;53.594;9.952;2022-08-21T03:59:53;5.40;;;2.93;;
28920;SDS011;16035;53.594;9.952;2022-08-21T04:01:54;9.07;;;3.73;;
28920;SDS011;16035;53.594;9.952;2022-08-21T04:03:56;4.25;;;2.88;;
28920;SDS011;16035;53.594;9.952;2022-08-21T04:05:56;7.07;;;3.10;;
28920;SDS011;16035;53.594;9.952;2022-08-21T04:07:57;5.90;;;3.50;;
28920;SDS011;16035;53.594;9.952;2022-08-21T04:09:59;2.65;;;2.42;;
28920;SDS011;16035;53.594;9.952;2022-08-21T04:11:59;4.23;;;3.00;;
28920;SDS011;16035;53.594;9.952;2022-08-21T04:14:00;7.93;;;2.92;;
28920;SDS011;16035;53.594;9.952;2022-08-21T04:16:01;5.75;;;2.70;;
28920;SDS011;16035;53.594;9.952;2022-08-21T04:18:01;5.93;;;2.77;;
28920;SDS011;16035;53.594;9.952;2022-08-21T04:20:03;7.93;;;2.90;;
28920;SDS011;16035;53.594;9.952;2022-08-21T04:22:04;4.47;;;2.83;;
28920;SDS011;16035;53.594;9.952;2022-08-21T04:24:05;5.10;;;2.80;;
28920;SDS011;16035;53.594;9.952;2022-08-21T04:26:07;5.50;;;3.00;;
28920;SDS011;16035;53.594;9.952;2022-08-21T04:28:07;3.67;;;2.67;;
28920;SDS011;16035;53.594;9.952;2022-08-21T04:30:08;4.97;;;3.23;;
28920;SDS011;16035;53.594;9.952;2022-08-21T04:32:09;6.78;;;3.00;;
28920;SDS011;16035;53.594;9.952;2022-08-21T04:34:09;4.37;;;2.90;;
28920;SDS011;16035;53.594;9.952;2022-08-21T04:36:10;4.13;;;2.60;;
28920;SDS011;16035;53.594;9.952;2022-08-21T04:38:11;5.82;;;3.25;;
28920;SDS011;16035;53.594;9.952;2022-08-21T04:40:12;6.23;;;2.77;;
28920;SDS011;16035;53.594;9.952;2022-08-21T04:42:15;3.75;;;2.60;;
28920;SDS011;16035;53.594;9.952;2022-08-21T04:44:15;7.07;;;3.23;;
28920;SDS011;16035;53.594;9.952;2022-08-21T04:46:15;4.77;;;3.13;;
28920;SDS011;16035;53.594;9.952;2022-08-21T04:48:17;3.27;;;2.80;;
28920;SDS011;16035;53.594;9.952;2022-08-21T04:50:22;6.10;;;3.67;;
28920;SDS011;16035;53.594;9.952;2022-08-21T04:52:27;5.80;;;3.03;;
28920;SDS011;16035;53.594;9.952;2022-08-21T04:54:27;4.33;;;2.73;;
28920;SDS011;16035;53.594;9.952;2022-08-21T04:56:33;4.00;;;2.77;;
28920;SDS011;16035;53.594;9.952;2022-08-21T04:58:40;4.22;;;2.90;;
28920;SDS011;16035;53.594;9.952;2022-08-21T05:00:41;5.38;;;3.35;;
28920;SDS011;16035;53.594;9.952;2022-08-21T05:02:42;5.87;;;3.10;;
28920;SDS011;16035;53.594;9.952;2022-08-21T05:04:47;4.23;;;2.93;;
28920;SDS011;16035;53.594;9.952;2022-08-21T05:06:50;6.55;;;3.10;;
28920;SDS011;16035;53.594;9.952;2022-08-21T05:08:53;7.28;;;3.20;;
28920;SDS011;16035;53.594;9.952;2022-08-21T05:10:55;4.80;;;2.92;;
28920;SDS011;16035;53.594;9.952;2022-08-21T05:12:56;6.73;;;3.43;;
28920;SDS011;16035;53.594;9.952;2022-08-21T05:14:57;6.47;;;2.80;;
28920;SDS011;16035;53.594;9.952;2022-08-21T05:16:57;4.40;;;2.73;;
28920;SDS011;16035;53.594;9.952;2022-08-21T05:18:58;6.20;;;3.05;;
28920;SDS011;16035;53.594;9.952;2022-08-21T05:20:59;4.83;;;3.13;;
28920;SDS011;16035;53.594;9.952;2022-08-21T05:22:59;4.27;;;3.03;;
28920;SDS011;16035;53.594;9.952;2022-08-21T05:25:01;3.95;;;2.58;;
28920;SDS011;16035;53.594;9.952;2022-08-21T05:27:02;5.15;;;3.20;;
28920;SDS011;16035;53.594;9.952;2022-08-21T05:29:03;5.63;;;3.38;;
28920;SDS011;16035;53.594;9.952;2022-08-21T05:31:04;4.50;;;2.97;;
28920;SDS011;16035;53.594;9.952;2022-08-21T05:33:05;7.03;;;3.00;;
28920;SDS011;16035;53.594;9.952;2022-08-21T05:35:06;2.85;;;2.30;;
28920;SDS011;16035;53.594;9.952;2022-08-21T05:37:09;4.93;;;2.88;;
28920;SDS011;16035;53.594;9.952;2022-08-21T05:39:11;5.55;;;3.17;;
28920;SDS011;16035;53.594;9.952;2022-08-21T05:41:11;4.20;;;2.88;;
28920;SDS011;16035;53.594;9.952;2022-08-21T05:43:12;7.53;;;4.22;;
28920;SDS011;16035;53.594;9.952;2022-08-21T05:45:12;7.13;;;3.20;;
28920;SDS011;16035;53.594;9.952;2022-08-21T05:47:13;4.10;;;2.97;;
28920;SDS011;16035;53.594;9.952;2022-08-21T05:49:13;4.63;;;3.13;;
28920;SDS011;16035;53.594;9.952;2022-08-21T05:51:14;5.63;;;3.10;;
28920;SDS011;16035;53.594;9.952;2022-08-21T05:53:15;5.93;;;3.10;;
28920;SDS011;16035;53.594;9.952;2022-08-21T05:55:17;4.05;;;2.80;;
28920;SDS011;16035;53.594;9.952;2022-08-21T05:57:17;4.57;;;2.90;;
28920;SDS011;16035;53.594;9.952;2022-08-21T05:59:17;5.57;;;3.13;;
28920;SDS011;16035;53.594;9.952;2022-08-21T06:01:18;4.90;;;2.57;;
28920;SDS011;16035;53.594;9.952;2022-08-21T06:03:23;5.28;;;3.15;;
28920;SDS011;16035;53.594;9.952;2022-08-21T06:05:26;4.88;;;3.00;;
28920;SDS011;16035;53.594;9.952;2022-08-21T06:07:26;6.20;;;3.27;;
28920;SDS011;16035;53.594;9.952;2022-08-21T06:09:26;4.57;;;2.77;;
28920;SDS011;16035;53.594;9.952;2022-08-21T06:11:27;5.00;;;2.80;;
28920;SDS011;16035;53.594;9.952;2022-08-21T06:13:27;6.23;;;3.13;;
28920;SDS011;16035;53.594;9.952;2022-08-21T06:15:28;5.65;;;3.42;;
28920;SDS011;16035;53.594;9.952;2022-08-21T06:17:29;6.30;;;3.10;;
28920;SDS011;16035;53.594;9.952;2022-08-21T06:19:29;5.37;;;2.73;;
28920;SDS011;16035;53.594;9.952;2022-08-21T06:21:30;3.80;;;2.30;;
28920;SDS011;16035;53.594;9.952;2022-08-21T06:23:30;4.63;;;2.63;;
28920;SDS011;16035;53.594;9.952;2022-08-21T06:25:31;4.68;;;2.50;;
28920;SDS011;16035;53.594;9.952;2022-08-21T06:27:31;4.50;;;2.83;;
28920;SDS011;16035;53.594;9.952;2022-08-21T06:29:32;5.87;;;2.77;;
28920;SDS011;16035;53.594;9.952;2022-08-21T06:31:32;1.90;;;1.70;;
28920;SDS011;16035;53.594;9.952;2022-08-21T06:33:33;2.90;;;1.77;;
28920;SDS011;16035;53.594;9.952;2022-08-21T06:35:33;3.23;;;1.70;;
28920;SDS011;16035;53.594;9.952;2022-08-21T06:37:34;4.40;;;1.55;;
28920;SDS011;16035;53.594;9.952;2022-08-21T06:39:35;3.73;;;1.60;;
28920;SDS011;16035;53.594;9.952;2022-08-21T06:41:35;2.37;;;1.43;;
28920;SDS011;16035;53.594;9.952;2022-08-21T06:43:36;4.30;;;1.23;;
28920;SDS011;16035;53.594;9.952;2022-08-21T06:45:36;2.67;;;1.30;;
28920;SDS011;16035;53.594;9.952;2022-08-21T06:47:37;3.67;;;1.50;;
28920;SDS011;16035;53.594;9.952;2022-08-21T06:49:37;3.30;;;1.40;;
28920;SDS011;16035;53.594;9.952;2022-08-21T06:51:38;5.27;;;1.40;;
28920;SDS011;16035;53.594;9.952;2022-08-21T06:53:38;3.83;;;1.40;;
28920;SDS011;16035;53.594;9.952;2022-08-21T06:55:39;5.60;;;1.57;;
28920;SDS011;16035;53.594;9.952;2022-08-21T06:57:40;4.90;;;1.60;;
28920;SDS011;16035;53.594;9.952;2022-08-21T06:59:40;2.30;;;1.23;;
28920;SDS011;16035;53.594;9.952;2022-08-21T07:01:40;3.17;;;1.70;;
28920;SDS011;16035;53.594;9.952;2022-08-21T07:03:41;2.40;;;1.30;;
28920;SDS011;16035;53.594;9.952;2022-08-21T07:05:42;2.97;;;1.30;;
28920;SDS011;16035;53.594;9.952;2022-08-21T07:07:43;4.97;;;1.40;;
28920;SDS011;16035;53.594;9.952;2022-08-21T07:09:45;2.10;;;1.23;;
28920;SDS011;16035;53.594;9.952;2022-08-21T07:11:46;3.30;;;1.30;;
28920;SDS011;16035;53.594;9.952;2022-08-21T07:13:51;4.82;;;1.50;;
28920;SDS011;16035;53.594;9.952;2022-08-21T07:15:53;3.20;;;1.90;;
28920;SDS011;16035;53.594;9.952;2022-08-21T07:17:53;4.40;;;1.20;;
28920;SDS011;16035;53.594;9.952;2022-08-21T07:19:53;2.70;;;1.40;;
28920;SDS011;16035;53.594;9.952;2022-08-21T07:21:55;2.07;;;1.33;;
28920;SDS011;16035;53.594;9.952;2022-08-21T07:23:58;2.35;;;1.63;;
28920;SDS011;16035;53.594;9.952;2022-08-21T07:25:58;3.33;;;1.80;;
28920;SDS011;16035;53.594;9.952;2022-08-21T07:28:01;3.67;;;1.60;;
28920;SDS011;16035;53.594;9.952;2022-08-21T07:30:03;3.22;;;1.58;;
28920;SDS011;16035;53.594;9.952;2022-08-21T07:32:04;4.40;;;1.52;;
28920;SDS011;16035;53.594;9.952;2022-08-21T07:34:05;4.85;;;2.25;;
28920;SDS011;16035;53.594;9.952;2022-08-21T07:36:05;3.50;;;1.70;;
28920;SDS011;16035;53.594;9.952;2022-08-21T07:38:06;3.65;;;2.03;;
28920;SDS011;16035;53.594;9.952;2022-08-21T07:40:07;2.37;;;1.93;;
28920;SDS011;16035;53.594;9.952;2022-08-21T07:42:07;4.15;;;1.60;;
28920;SDS011;16035;53.594;9.952;2022-08-21T07:44:09;5.22;;;1.92;;
28920;SDS011;16035;53.594;9.952;2022-08-21T07:46:10;4.00;;;1.27;;
28920;SDS011;16035;53.594;9.952;2022-08-21T07:48:11;6.55;;;1.67;;
28920;SDS011;16035;53.594;9.952;2022-08-21T07:50:12;4.93;;;1.60;;
28920;SDS011;16035;53.594;9.952;2022-08-21T07:52:13;4.00;;;1.58;;
28920;SDS011;16035;53.594;9.952;2022-08-21T07:54:13;3.40;;;1.50;;
28920;SDS011;16035;53.594;9.952;2022-08-21T07:56:14;3.70;;;1.47;;
28920;SDS011;16035;53.594;9.952;2022-08-21T07:58:14;3.73;;;1.73;;
28920;SDS011;16035;53.594;9.952;2022-08-21T08:00:16;3.93;;;1.50;;
28920;SDS011;16035;53.594;9.952;2022-08-21T08:02:23;3.10;;;1.90;;
28920;SDS011;16035;53.594;9.952;2022-08-21T08:04:24;4.85;;;1.60;;
28920;SDS011;16035;53.594;9.952;2022-08-21T08:06:25;2.40;;;1.20;;
28920;SDS011;16035;53.594;9.952;2022-08-21T08:08:25;2.10;;;1.13;;
28920;SDS011;16035;53.594;9.952;2022-08-21T08:10:26;6.97;;;1.43;;
28920;SDS011;16035;53.594;9.952;2022-08-21T08:12:27;3.45;;;1.45;;
28920;SDS011;16035;53.594;9.952;2022-08-21T08:14:29;3.97;;;1.40;;
28920;SDS011;16035;53.594;9.952;2022-08-21T08:16:29;3.73;;;1.57;;
28920;SDS011;16035;53.594;9.952;2022-08-21T08:18:29;2.00;;;1.13;;
28920;SDS011;16035;53.594;9.952;2022-08-21T08:20:30;3.20;;;1.10;;
28920;SDS011;16035;53.594;9.952;2022-08-21T08:22:30;4.40;;;1.30;;
28920;SDS011;16035;53.594;9.952;2022-08-21T08:24:31;2.10;;;1.10;;
28920;SDS011;16035;53.594;9.952;2022-08-21T08:26:31;3.33;;;1.20;;
28920;SDS011;16035;53.594;9.952;2022-08-21T08:28:32;2.00;;;1.13;;
28920;SDS011;16035;53.594;9.952;2022-08-21T08:30:32;3.40;;;1.27;;
28920;SDS011;16035;53.594;9.952;2022-08-21T08:32:33;3.07;;;1.23;;
28920;SDS011;16035;53.594;9.952;2022-08-21T08:36:35;4.63;;;1.13;;
28920;SDS011;16035;53.594;9.952;2022-08-21T08:38:36;5.20;;;1.00;;
28920;SDS011;16035;53.594;9.952;2022-08-21T08:42:56;2.92;;;1.30;;
28920;SDS011;16035;53.594;9.952;2022-08-21T08:49:22;6.07;;;1.25;;
28920;SDS011;16035;53.594;9.952;2022-08-21T08:51:40;2.67;;;1.10;;
28920;SDS011;16035;53.594;9.952;2022-08-21T08:53:50;3.50;;;1.33;;
28920;SDS011;16035;53.594;9.952;2022-08-21T08:55:54;4.45;;;1.20;;
28920;SDS011;16035;53.594;9.952;2022-08-21T08:57:55;4.80;;;1.40;;
28920;SDS011;16035;53.594;9.952;2022-08-21T08:59:58;5.95;;;1.60;;
28920;SDS011;16035;53.594;9.952;2022-08-21T09:02:04;4.95;;;1.38;;
28920;SDS011;16035;53.594;9.952;2022-08-21T09:04:05;2.83;;;1.27;;
28920;SDS011;16035;53.594;9.952;2022-08-21T09:06:17;3.03;;;1.30;;
28920;SDS011;16035;53.594;9.952;2022-08-21T09:13:20;4.68;;;1.60;;
28920;SDS011;16035;53.594;9.952;2022-08-21T09:20:23;6.00;;;1.70;;
28920;SDS011;16035;53.594;9.952;2022-08-21T09:22:39;7.88;;;1.80;;
28920;SDS011;16035;53.594;9.952;2022-08-21T09:24:53;8.38;;;1.80;;
28920;SDS011;16035;53.594;9.952;2022-08-21T09:27:07;2.47;;;1.23;;
28920;SDS011;16035;53.594;9.952;2022-08-21T09:29:09;4.68;;;1.30;;
28920;SDS011;16035;53.594;9.952;2022-08-21T09:31:14;5.75;;;1.52;;
28920;SDS011;16035;53.594;9.952;2022-08-21T09:33:16;4.82;;;1.65;;
28920;SDS011;16035;53.594;9.952;2022-08-21T09:37:19;3.95;;;1.42;;
28920;SDS011;16035;53.594;9.952;2022-08-21T09:41:30;5.72;;;1.42;;
28920;SDS011;16035;53.594;9.952;2022-08-21T09:43:33;4.57;;;1.58;;
28920;SDS011;16035;53.594;9.952;2022-08-21T09:47:35;6.83;;;1.70;;
28920;SDS011;16035;53.594;9.952;2022-08-21T09:51:38;8.82;;;1.85;;
28920;SDS011;16035;53.594;9.952;2022-08-21T09:53:55;8.43;;;2.10;;
28920;SDS011;16035;53.594;9.952;2022-08-21T09:56:02;5.32;;;1.58;;
28920;SDS011;16035;53.594;9.952;2022-08-21T09:58:29;5.85;;;1.60;;
28920;SDS011;16035;53.594;9.952;2022-08-21T10:00:33;8.05;;;2.08;;
28920;SDS011;16035;53.594;9.952;2022-08-21T10:02:34;4.30;;;1.65;;
28920;SDS011;16035;53.594;9.952;2022-08-21T10:06:36;4.00;;;1.50;;
28920;SDS011;16035;53.594;9.952;2022-08-21T10:10:38;6.30;;;1.60;;
28920;SDS011;16035;53.594;9.952;2022-08-21T10:17:32;5.95;;;1.60;;
28920;SDS011;16035;53.594;9.952;2022-08-21T10:24:54;5.78;;;1.65;;
28920;SDS011;16035;53.594;9.952;2022-08-21T10:31:45;5.47;;;1.55;;
28920;SDS011;16035;53.594;9.952;2022-08-21T10:45:48;3.15;;;1.42;;
28920;SDS011;16035;53.594;9.952;2022-08-21T10:48:07;4.23;;;1.50;;
28920;SDS011;16035;53.594;9.952;2022-08-21T10:50:17;6.30;;;1.90;;
28920;SDS011;16035;53.594;9.952;2022-08-21T10:54:50;3.55;;;1.35;;
28920;SDS011;16035;53.594;9.952;2022-08-21T10:57:01;4.30;;;1.33;;
28920;SDS011;16035;53.594;9.952;2022-08-21T10:59:18;3.38;;;1.48;;
28920;SDS011;16035;53.594;9.952;2022-08-21T11:03:47;3.47;;;1.60;;
28920;SDS011;16035;53.594;9.952;2022-08-21T11:05:53;1.80;;;1.20;;
28920;SDS011;16035;53.594;9.952;2022-08-21T11:08:04;3.33;;;1.52;;
28920;SDS011;16035;53.594;9.952;2022-08-21T11:12:41;5.80;;;1.73;;
28920;SDS011;16035;53.594;9.952;2022-08-21T11:14:47;3.70;;;1.20;;
28920;SDS011;16035;53.594;9.952;2022-08-21T11:17:09;3.33;;;1.58;;
28920;SDS011;16035;53.594;9.952;2022-08-21T11:21:48;3.45;;;1.65;;
28920;SDS011;16035;53.594;9.952;2022-08-21T11:24:01;3.97;;;1.63;;
28920;SDS011;16035;53.594;9.952;2022-08-21T11:26:07;2.85;;;1.08;;
28920;SDS011;16035;53.594;9.952;2022-08-21T11:28:35;3.53;;;1.10;;
28920;SDS011;16035;53.594;9.952;2022-08-21T11:33:26;2.88;;;1.30;;
28920;SDS011;16035;53.594;9.952;2022-08-21T11:42:50;4.82;;;1.65;;
28920;SDS011;16035;53.594;9.952;2022-08-21T11:49:33;4.28;;;1.20;;
28920;SDS011;16035;53.594;9.952;2022-08-21T11:54:26;4.10;;;1.08;;
28920;SDS011;16035;53.594;9.952;2022-08-21T11:58:48;3.08;;;1.13;;
28920;SDS011;16035;53.594;9.952;2022-08-21T12:00:56;2.22;;;1.05;;
28920;SDS011;16035;53.594;9.952;2022-08-21T12:03:17;3.40;;;1.02;;
28920;SDS011;16035;53.594;9.952;2022-08-21T12:07:35;3.20;;;1.30;;
28920;SDS011;16035;53.594;9.952;2022-08-21T12:09:50;5.47;;;1.48;;
28920;SDS011;16035;53.594;9.952;2022-08-21T12:12:12;2.88;;;1.52;;
28920;SDS011;16035;53.594;9.952;2022-08-21T12:14:23;4.15;;;1.30;;
28920;SDS011;16035;53.594;9.952;2022-08-21T12:16:36;4.33;;;1.67;;
28920;SDS011;16035;53.594;9.952;2022-08-21T12:18:38;2.80;;;1.30;;
28920;SDS011;16035;53.594;9.952;2022-08-21T12:20:41;2.60;;;1.00;;
28920;SDS011;16035;53.594;9.952;2022-08-21T12:22:47;2.15;;;1.05;;
28920;SDS011;16035;53.594;9.952;2022-08-21T12:24:52;2.58;;;1.33;;
28920;SDS011;16035;53.594;9.952;2022-08-21T12:29:58;1.63;;;1.05;;
28920;SDS011;16035;53.594;9.952;2022-08-21T12:34:10;2.72;;;1.45;;
28920;SDS011;16035;53.594;9.952;2022-08-21T12:36:11;2.53;;;1.40;;
28920;SDS011;16035;53.594;9.952;2022-08-21T12:38:17;1.27;;;1.00;;
28920;SDS011;16035;53.594;9.952;2022-08-21T12:40:26;1.38;;;0.98;;
28920;SDS011;16035;53.594;9.952;2022-08-21T12:42:33;1.60;;;1.05;;
28920;SDS011;16035;53.594;9.952;2022-08-21T12:44:42;3.55;;;1.17;;
28920;SDS011;16035;53.594;9.952;2022-08-21T12:46:48;4.00;;;1.10;;
28920;SDS011;16035;53.594;9.952;2022-08-21T12:48:57;2.97;;;1.00;;
28920;SDS011;16035;53.594;9.952;2022-08-21T12:51:06;2.80;;;0.85;;
28920;SDS011;16035;53.594;9.952;2022-08-21T12:53:16;3.40;;;1.17;;
28920;SDS011;16035;53.594;9.952;2022-08-21T12:55:28;3.60;;;1.35;;
28920;SDS011;16035;53.594;9.952;2022-08-21T12:57:30;3.53;;;0.93;;
28920;SDS011;16035;53.594;9.952;2022-08-21T12:59:30;2.55;;;0.88;;
28920;SDS011;16035;53.594;9.952;2022-08-21T13:01:36;4.05;;;0.98;;
28920;SDS011;16035;53.594;9.952;2022-08-21T13:03:43;2.55;;;1.08;;
28920;SDS011;16035;53.594;9.952;2022-08-21T13:05:44;3.30;;;1.00;;
28920;SDS011;16035;53.594;9.952;2022-08-21T13:07:46;2.40;;;1.15;;
28920;SDS011;16035;53.594;9.952;2022-08-21T13:09:49;2.67;;;1.60;;
28920;SDS011;16035;53.594;9.952;2022-08-21T13:11:53;2.28;;;0.95;;
28920;SDS011;16035;53.594;9.952;2022-08-21T13:16:04;2.33;;;1.07;;
28920;SDS011;16035;53.594;9.952;2022-08-21T13:18:07;1.33;;;0.60;;
28920;SDS011;16035;53.594;9.952;2022-08-21T13:20:09;1.17;;;0.85;;
28920;SDS011;16035;53.594;9.952;2022-08-21T13:22:23;3.92;;;1.13;;
28920;SDS011;16035;53.594;9.952;2022-08-21T13:24:29;1.80;;;0.80;;
28920;SDS011;16035;53.594;9.952;2022-08-21T13:26:34;2.58;;;0.82;;
28920;SDS011;16035;53.594;9.952;2022-08-21T13:28:34;2.83;;;1.10;;
28920;SDS011;16035;53.594;9.952;2022-08-21T13:30:38;1.63;;;0.80;;
28920;SDS011;16035;53.594;9.952;2022-08-21T13:32:43;2.72;;;1.00;;
28920;SDS011;16035;53.594;9.952;2022-08-21T13:34:45;3.92;;;0.98;;
28920;SDS011;16035;53.594;9.952;2022-08-21T13:36:46;2.83;;;0.87;;
28920;SDS011;16035;53.594;9.952;2022-08-21T13:38:47;2.60;;;0.77;;
28920;SDS011;16035;53.594;9.952;2022-08-21T13:40:57;2.05;;;0.77;;
28920;SDS011;16035;53.594;9.952;2022-08-21T13:43:02;4.65;;;1.20;;
28920;SDS011;16035;53.594;9.952;2022-08-21T13:45:02;3.83;;;0.95;;
28920;SDS011;16035;53.594;9.952;2022-08-21T13:47:04;2.45;;;0.93;;
28920;SDS011;16035;53.594;9.952;2022-08-21T13:49:06;1.73;;;0.82;;
28920;SDS011;16035;53.594;9.952;2022-08-21T13:51:08;1.95;;;0.90;;
28920;SDS011;16035;53.594;9.952;2022-08-21T13:55:37;2.35;;;1.10;;
28920;SDS011;16035;53.594;9.952;2022-08-21T13:57:42;2.88;;;1.02;;
28920;SDS011;16035;53.594;9.952;2022-08-21T13:59:42;1.00;;;0.70;;
28920;SDS011;16035;53.594;9.952;2022-08-21T14:01:51;3.20;;;1.00;;
28920;SDS011;16035;53.594;9.952;2022-08-21T14:04:03;1.52;;;0.73;;
28920;SDS011;16035;53.594;9.952;2022-08-21T14:06:26;1.80;;;0.82;;